Flugplatz Hamburg

Bericht für EDDH

vom 23.09. um 18:50 UTC

Wind 7 kt aus 280°

Sichtweite 10 km oder mehr

gering bewölkt in 4100 ft

aufgebrochene Bewölkung in 15000 ft

Temperatur 10.0°C

Taupunkt 7.0°C

Luftfeuchtigkeit 82%

Luftdruck 1012 hPa

keine wesentliche Wetteränderung innerhalb den nächsten 2 Stunden zu erwarten

EDDH 231850Z 28007KT 9999 FEW041 BKN150 10/07 Q1012 NOSIG

Prognose für EDDH

vom 23.09. um 17:00 UTC

Zwischen 18:00 UTC und 04:00 UTC

Wind 7 kt aus 320°

Sichtweite 10 km oder mehr

aufgelockert bewölkt in 2000 ft


Zwischen 21:00 UTC und 16:00 UTC zeitweise

Wind 15 kt aus 320° in Böen 35 kt

Regenschauer

aufgebrochene Bewölkung in 2000 ft


Am 24.09. zwischen 04:00 und 06:00 UTC übergehend zu

Wind 12 kt aus 320°

Sichtweite 10 km oder mehr

aufgelockert bewölkt in 2000 ft


Am 24.09. zwischen 17:00 und 20:00 UTC übergehend zu

Wind 7 kt aus 300°

Sichtweite 10 km oder mehr

aufgelockert bewölkt in 2000 ft

TAF EDDH 231700Z 2318/2424 32007KT 9999 SCT020 TEMPO 2321/2416 32015G35KT SHRA BKN020CB BECMG 2404/2406 32012KT BECMG 2417/2420 30007KT
Impressum